createdAt,value
2018-07-25T00:02:34.145Z,4.50
2018-07-25T00:05:15.435Z,10.50
2018-07-25T00:07:56.184Z,11.83
2018-07-25T00:10:42.192Z,20.20
2018-07-25T00:13:23.307Z,6.10
2018-07-25T00:16:04.311Z,12.80
2018-07-25T00:18:45.167Z,7.30
2018-07-25T00:21:26.352Z,10.73
2018-07-25T00:24:07.644Z,7.20
2018-07-25T00:26:48.899Z,9.27
2018-07-25T00:29:29.615Z,6.53
2018-07-25T00:32:10.804Z,6.83
2018-07-25T00:34:52.147Z,6.27
2018-07-25T00:37:34.199Z,10.93
2018-07-25T00:40:14.732Z,10.37
2018-07-25T00:42:56.271Z,7.70
2018-07-25T00:45:37.026Z,14.30
2018-07-25T00:48:17.581Z,9.50
2018-07-25T00:50:58.703Z,10.43
2018-07-25T00:53:40.037Z,9.43
2018-07-25T00:56:21.179Z,8.60
2018-07-25T00:59:02.220Z,23.27
2018-07-25T01:01:43.135Z,8.10
2018-07-25T01:04:24.308Z,9.90
2018-07-25T01:07:05.188Z,9.63
2018-07-25T01:09:46.715Z,13.90
2018-07-25T01:12:28.177Z,17.30
2018-07-25T01:15:09.771Z,9.03
2018-07-25T01:17:50.280Z,8.30
2018-07-25T01:20:31.568Z,5.03
2018-07-25T01:23:12.381Z,5.70
2018-07-25T01:25:53.572Z,5.07
2018-07-25T01:28:34.807Z,5.83
2018-07-25T01:31:15.980Z,5.00
2018-07-25T01:33:56.820Z,7.30
2018-07-25T01:36:37.787Z,5.20
2018-07-25T01:39:18.314Z,3.70
2018-07-25T01:41:59.758Z,5.97
2018-07-25T01:44:41.271Z,3.73
2018-07-25T01:47:23.007Z,5.30
2018-07-25T01:50:03.768Z,4.40
2018-07-25T01:52:44.350Z,5.23
2018-07-25T01:55:24.989Z,4.70
2018-07-25T01:58:05.803Z,4.07
2018-07-25T02:00:47.996Z,5.20
2018-07-25T02:03:28.731Z,5.00
2018-07-25T02:06:10.492Z,4.53
2018-07-25T02:08:51.617Z,8.47
2018-07-25T02:11:33.064Z,21.83
2018-07-25T02:14:13.920Z,7.93
2018-07-25T02:16:55.208Z,21.13
2018-07-25T02:19:36.274Z,8.03
2018-07-25T02:22:17.203Z,15.47
2018-07-25T02:24:57.938Z,7.53
2018-07-25T02:27:39.960Z,7.03
2018-07-25T02:30:20.674Z,42.70
2018-07-25T02:33:01.873Z,22.30
2018-07-25T02:35:43.304Z,9.17
2018-07-25T02:38:24.576Z,14.63
2018-07-25T02:41:05.464Z,10.50
2018-07-25T02:43:46.852Z,6.43
2018-07-25T02:46:27.919Z,26.83
2018-07-25T02:49:09.269Z,38.53
2018-07-25T02:51:50.687Z,18.43
2018-07-25T02:54:31.592Z,6.83
2018-07-25T02:57:12.785Z,15.77
2018-07-25T02:59:53.403Z,10.80
2018-07-25T03:02:34.963Z,22.43
2018-07-25T03:05:16.281Z,17.13
2018-07-25T03:07:57.796Z,8.27
2018-07-25T03:10:42.091Z,5.23
2018-07-25T03:13:23.555Z,5.50
2018-07-25T03:16:06.656Z,6.77
2018-07-25T03:18:47.996Z,15.77
2018-07-25T03:21:28.880Z,9.87
2018-07-25T03:24:09.731Z,4.70
2018-07-25T03:26:51.111Z,5.57
2018-07-25T03:29:32.207Z,4.57
2018-07-25T03:32:13.203Z,6.17
2018-07-25T03:34:54.150Z,4.47
2018-07-25T03:37:35.787Z,4.00
2018-07-25T03:40:16.522Z,4.70
2018-07-25T03:42:57.795Z,4.50
2018-07-25T03:45:39.140Z,4.20
2018-07-25T03:48:20.276Z,6.80
2018-07-25T03:51:01.149Z,8.67
2018-07-25T03:53:42.253Z,7.13
2018-07-25T03:56:23.439Z,5.67
2018-07-25T03:59:04.527Z,4.57
2018-07-25T04:01:45.663Z,5.13
2018-07-25T04:04:26.583Z,7.33
2018-07-25T04:07:07.795Z,7.03
2018-07-25T04:09:48.833Z,5.57
2018-07-25T04:12:30.338Z,5.30
2018-07-25T04:15:11.158Z,4.93
2018-07-25T04:17:52.342Z,4.83
2018-07-25T04:20:32.922Z,4.40
2018-07-25T04:23:13.675Z,6.50
2018-07-25T04:25:54.538Z,7.10
2018-07-25T04:28:35.808Z,4.37
2018-07-25T04:31:17.162Z,4.73
2018-07-25T04:33:58.673Z,7.33
2018-07-25T04:36:39.343Z,7.10
2018-07-25T04:39:20.471Z,7.33
2018-07-25T04:42:01.447Z,3.80
2018-07-25T04:44:42.457Z,10.60
2018-07-25T04:47:23.793Z,13.03
2018-07-25T04:50:04.719Z,6.10
2018-07-25T04:52:46.034Z,5.00
2018-07-25T04:55:26.683Z,18.50
2018-07-25T04:58:07.443Z,12.30
2018-07-25T05:00:48.064Z,9.20
2018-07-25T05:03:29.410Z,5.93
2018-07-25T05:06:10.926Z,4.13
2018-07-25T05:08:51.891Z,10.53
2018-07-25T05:11:32.925Z,8.93
2018-07-25T05:14:13.703Z,5.30
2018-07-25T05:16:55.107Z,14.13
2018-07-25T05:19:36.293Z,5.67
2018-07-25T05:22:17.376Z,3.63
2018-07-25T05:24:58.149Z,19.87
2018-07-25T05:27:39.253Z,12.33
2018-07-25T05:30:20.589Z,15.37
2018-07-25T05:33:02.045Z,12.00
2018-07-25T05:35:42.840Z,11.00
2018-07-25T05:38:23.856Z,8.33
2018-07-25T05:41:04.753Z,20.83
2018-07-25T05:43:46.128Z,24.10
2018-07-25T05:46:27.364Z,10.70
2018-07-25T05:49:08.387Z,14.57
2018-07-25T05:51:48.916Z,27.23
2018-07-25T05:54:30.193Z,21.00
2018-07-25T05:57:11.267Z,9.10
2018-07-25T05:59:51.946Z,4.23
2018-07-25T06:02:32.751Z,29.50
2018-07-25T06:05:13.607Z,41.43
2018-07-25T06:07:54.899Z,13.17
2018-07-25T06:10:36.388Z,27.10
2018-07-25T06:13:17.337Z,33.20
2018-07-25T06:15:58.702Z,31.47
2018-07-25T06:18:39.344Z,29.03
2018-07-25T06:21:20.479Z,29.00
2018-07-25T06:24:01.379Z,24.37
2018-07-25T06:26:42.307Z,72.30
2018-07-25T06:29:23.395Z,40.53
2018-07-25T06:32:04.343Z,36.13
2018-07-25T06:34:45.396Z,45.03
2018-07-25T06:37:26.487Z,109.97
2018-07-25T06:40:07.432Z,85.70
2018-07-25T06:42:48.364Z,56.20
2018-07-25T06:45:29.747Z,35.93
2018-07-25T06:48:11.163Z,43.07
2018-07-25T06:50:52.288Z,23.93
2018-07-25T06:53:33.463Z,53.10
2018-07-25T06:56:14.422Z,39.47
2018-07-25T06:58:55.155Z,14.00
2018-07-25T07:01:35.998Z,24.80
2018-07-25T07:04:17.345Z,33.80
2018-07-25T07:06:58.115Z,33.00
2018-07-25T07:09:39.422Z,16.03
2018-07-25T07:12:20.247Z,6.27
2018-07-25T07:15:01.095Z,13.83
2018-07-25T07:17:42.963Z,10.43
2018-07-25T07:20:23.619Z,23.03
2018-07-25T07:23:04.856Z,30.93
2018-07-25T07:25:46.470Z,28.97
2018-07-25T07:28:27.727Z,18.63
2018-07-25T07:31:08.712Z,13.63
2018-07-25T07:33:49.427Z,21.00
2018-07-25T07:36:30.545Z,13.67
2018-07-25T07:39:13.351Z,17.73
2018-07-25T07:41:54.615Z,16.83
2018-07-25T07:44:35.685Z,14.23
2018-07-25T07:47:16.583Z,13.30
2018-07-25T07:49:57.382Z,8.83
2018-07-25T07:52:39.175Z,20.30
2018-07-25T07:55:20.528Z,13.43
2018-07-25T07:58:01.491Z,11.00
2018-07-25T08:00:42.904Z,5.70
2018-07-25T08:03:24.067Z,5.70
2018-07-25T08:06:05.007Z,16.07
2018-07-25T08:08:46.083Z,14.37
2018-07-25T08:11:27.056Z,15.40
2018-07-25T08:14:08.812Z,8.53
2018-07-25T08:16:49.707Z,7.20
2018-07-25T08:19:31.123Z,24.60
2018-07-25T08:22:12.527Z,5.97
2018-07-25T08:24:53.204Z,8.77
2018-07-25T08:27:34.327Z,12.33
2018-07-25T08:30:15.530Z,18.33
2018-07-25T08:32:56.654Z,11.17
2018-07-25T08:35:37.328Z,7.80
2018-07-25T08:38:18.180Z,10.07
2018-07-25T08:40:59.367Z,11.93
2018-07-25T08:43:41.273Z,7.53
2018-07-25T08:46:22.315Z,9.50
2018-07-25T08:49:02.901Z,17.63
2018-07-25T08:51:44.062Z,15.67
2018-07-25T08:54:24.899Z,5.40
2018-07-25T08:57:05.538Z,7.43
2018-07-25T08:59:47.042Z,15.73
2018-07-25T09:02:28.104Z,10.37
2018-07-25T09:05:09.684Z,12.17
2018-07-25T09:07:50.396Z,9.73
2018-07-25T09:10:31.099Z,13.60
2018-07-25T09:13:12.233Z,8.30
2018-07-25T09:15:53.518Z,11.93
2018-07-25T09:18:34.901Z,22.03
2018-07-25T09:21:16.241Z,7.80
2018-07-25T09:23:57.311Z,14.43
2018-07-25T09:26:38.381Z,6.37
2018-07-25T09:29:19.252Z,5.63
2018-07-25T09:32:00.270Z,14.00
2018-07-25T09:34:41.829Z,9.43
2018-07-25T09:37:22.811Z,10.27
2018-07-25T09:40:03.820Z,4.93
2018-07-25T09:42:45.818Z,4.90
2018-07-25T09:45:26.678Z,4.30
2018-07-25T09:48:07.966Z,8.30
2018-07-25T09:50:49.189Z,3.47
2018-07-25T09:53:30.288Z,14.53
2018-07-25T09:56:11.348Z,13.40
2018-07-25T09:58:52.393Z,6.03
2018-07-25T10:01:33.562Z,12.70
2018-07-25T10:04:14.726Z,14.63
2018-07-25T10:06:56.173Z,9.33
2018-07-25T10:09:37.447Z,5.53
2018-07-25T10:12:19.002Z,8.57
2018-07-25T10:14:59.603Z,16.50
2018-07-25T10:17:40.457Z,6.93
2018-07-25T10:20:21.156Z,5.63
2018-07-25T10:23:02.227Z,8.30
2018-07-25T10:25:42.799Z,11.10
2018-07-25T10:28:23.757Z,8.13
2018-07-25T10:31:04.972Z,15.47
2018-07-25T10:33:46.067Z,8.30
2018-07-25T10:36:27.280Z,8.70
2018-07-25T10:39:08.943Z,15.77
2018-07-25T10:41:49.585Z,7.70
2018-07-25T10:44:30.299Z,17.17
2018-07-25T10:47:11.214Z,15.73
2018-07-25T10:49:51.860Z,7.73
2018-07-25T10:52:33.014Z,8.00
2018-07-25T10:55:14.092Z,12.83
2018-07-25T10:57:55.088Z,14.17
2018-07-25T11:00:36.686Z,9.43
2018-07-25T11:03:17.440Z,6.30
2018-07-25T11:05:58.598Z,11.57
2018-07-25T11:08:39.731Z,8.00
2018-07-25T11:11:20.372Z,11.17
2018-07-25T11:14:01.427Z,11.63
2018-07-25T11:16:42.503Z,6.43
2018-07-25T11:19:23.911Z,11.47
2018-07-25T11:22:04.772Z,9.67
2018-07-25T11:24:45.924Z,8.50
2018-07-25T11:27:27.044Z,9.30
2018-07-25T11:30:07.803Z,9.67
2018-07-25T11:32:49.235Z,11.67
2018-07-25T11:35:31.215Z,6.77
2018-07-25T11:38:11.950Z,7.73
2018-07-25T11:40:52.967Z,6.50
2018-07-25T11:43:33.732Z,18.83
2018-07-25T11:46:14.476Z,12.33
2018-07-25T11:48:55.356Z,9.20
2018-07-25T11:51:36.346Z,6.90
2018-07-25T11:54:17.211Z,8.93
2018-07-25T11:56:58.516Z,5.23
2018-07-25T11:59:39.563Z,6.70
2018-07-25T12:02:20.443Z,15.73
2018-07-25T12:05:01.257Z,13.63
2018-07-25T12:07:42.532Z,18.60
2018-07-25T12:10:23.493Z,11.67
2018-07-25T12:13:04.615Z,9.27
2018-07-25T12:15:45.261Z,5.30
2018-07-25T12:18:26.577Z,6.20
2018-07-25T12:21:07.432Z,6.20
2018-07-25T12:23:48.579Z,6.47
2018-07-25T12:26:29.722Z,15.70
2018-07-25T12:29:10.719Z,15.47
2018-07-25T12:31:52.134Z,18.00
2018-07-25T12:34:32.704Z,6.90
2018-07-25T12:37:15.400Z,14.20
2018-07-25T12:39:56.376Z,8.60
2018-07-25T12:42:37.192Z,6.20
2018-07-25T12:45:17.995Z,6.27
2018-07-25T12:47:58.951Z,10.63
2018-07-25T12:50:40.179Z,11.00
2018-07-25T12:53:20.994Z,12.87
2018-07-25T12:56:01.919Z,6.40
2018-07-25T12:58:42.895Z,7.63
2018-07-25T13:01:24.231Z,11.60
2018-07-25T13:04:05.528Z,12.90
2018-07-25T13:06:46.516Z,8.30
2018-07-25T13:09:27.723Z,7.70
2018-07-25T13:12:08.823Z,6.03
2018-07-25T13:14:49.892Z,6.00
2018-07-25T13:17:31.036Z,12.43
2018-07-25T13:20:12.322Z,9.20
2018-07-25T13:22:54.073Z,5.87
2018-07-25T13:25:35.479Z,8.10
2018-07-25T13:28:17.078Z,14.13
2018-07-25T13:30:58.585Z,5.70
2018-07-25T13:33:39.483Z,7.00
2018-07-25T13:36:20.951Z,11.73
2018-07-25T13:39:02.079Z,5.97
2018-07-25T13:41:43.353Z,6.70
2018-07-25T13:44:24.052Z,9.33
2018-07-25T13:47:05.499Z,8.10
2018-07-25T13:49:46.143Z,6.23
2018-07-25T13:52:26.868Z,11.80
2018-07-25T13:55:07.535Z,6.40
2018-07-25T13:57:48.670Z,8.80
2018-07-25T14:00:29.906Z,5.87
2018-07-25T14:03:11.206Z,4.50
2018-07-25T14:05:51.920Z,10.30
2018-07-25T14:08:32.914Z,7.20
2018-07-25T14:11:14.075Z,6.60
2018-07-25T14:13:55.142Z,8.00
2018-07-25T14:16:35.751Z,5.97
2018-07-25T14:19:16.343Z,5.20
2018-07-25T14:21:57.243Z,10.70
2018-07-25T14:24:38.668Z,5.73
2018-07-25T14:27:19.602Z,3.90
2018-07-25T14:30:00.181Z,3.50
2018-07-25T14:32:41.577Z,5.47
2018-07-25T14:35:23.086Z,8.97
2018-07-25T14:38:04.158Z,11.67
2018-07-25T14:40:45.183Z,4.37
2018-07-25T14:43:26.610Z,4.70
2018-07-25T14:46:07.324Z,4.00
2018-07-25T14:48:48.496Z,3.13
2018-07-25T14:51:29.856Z,5.07
2018-07-25T14:54:10.828Z,4.80
2018-07-25T14:56:52.055Z,3.57
2018-07-25T14:59:33.646Z,3.97
2018-07-25T15:02:14.974Z,5.60
2018-07-25T15:04:56.137Z,5.90
2018-07-25T15:07:37.648Z,4.23
2018-07-25T15:10:18.910Z,4.60
2018-07-25T15:13:00.472Z,4.90
2018-07-25T15:15:41.457Z,2.80
2018-07-25T15:18:22.695Z,3.20
2018-07-25T15:21:03.341Z,7.97
2018-07-25T15:23:44.633Z,4.90
2018-07-25T15:26:25.371Z,3.47
2018-07-25T15:29:06.860Z,7.90
2018-07-25T15:34:27.971Z,4.60
2018-07-25T15:37:09.053Z,4.23
2018-07-25T15:39:50.210Z,4.30
2018-07-25T15:42:31.725Z,3.60
2018-07-25T15:45:12.905Z,5.43
2018-07-25T15:47:53.515Z,5.90
2018-07-25T15:50:34.345Z,7.43
2018-07-25T15:53:15.182Z,10.30
2018-07-25T15:55:56.647Z,11.53
2018-07-25T15:58:37.800Z,8.87
2018-07-25T16:01:19.147Z,5.13
2018-07-25T16:04:00.459Z,4.70
2018-07-25T16:06:41.410Z,3.63
2018-07-25T16:09:22.759Z,7.23
2018-07-25T16:12:03.715Z,7.73
2018-07-25T16:14:45.080Z,12.10
2018-07-25T16:17:26.071Z,6.63
2018-07-25T16:20:08.090Z,14.67
2018-07-25T16:22:48.783Z,10.20
2018-07-25T16:25:29.812Z,8.50
2018-07-25T16:28:11.154Z,5.07
2018-07-25T16:30:51.824Z,5.80
2018-07-25T16:33:33.069Z,5.13
2018-07-25T16:36:14.695Z,6.73
2018-07-25T16:38:56.084Z,5.93
2018-07-25T16:41:37.427Z,7.63
2018-07-25T16:44:18.656Z,4.23
2018-07-25T16:47:00.037Z,4.07
2018-07-25T16:49:41.131Z,5.87
2018-07-25T16:52:22.376Z,4.13
2018-07-25T16:55:03.463Z,6.67
2018-07-25T16:57:44.152Z,4.77
2018-07-25T17:00:24.907Z,4.20
2018-07-25T17:03:06.287Z,11.73
2018-07-25T17:05:47.494Z,6.20
2018-07-25T17:08:28.742Z,9.07
2018-07-25T17:11:09.338Z,3.83
2018-07-25T17:13:50.534Z,9.07
2018-07-25T17:16:31.764Z,5.10
2018-07-25T17:19:13.043Z,7.60
2018-07-25T17:21:53.983Z,11.97
2018-07-25T17:24:35.079Z,6.33
2018-07-25T17:27:15.987Z,5.10
2018-07-25T17:29:57.087Z,4.10
2018-07-25T17:32:38.332Z,7.60
2018-07-25T17:35:19.442Z,4.80
2018-07-25T17:38:00.771Z,5.10
2018-07-25T17:40:41.617Z,6.53
2018-07-25T17:43:22.326Z,4.40
2018-07-25T17:46:03.363Z,4.10
2018-07-25T17:48:44.474Z,4.17
2018-07-25T17:51:25.482Z,7.20
2018-07-25T17:54:06.751Z,14.40
2018-07-25T17:56:47.714Z,5.23
2018-07-25T17:59:28.298Z,4.50
2018-07-25T18:02:09.055Z,4.23
2018-07-25T18:04:50.240Z,4.23
2018-07-25T18:07:31.568Z,2.97
2018-07-25T18:10:12.696Z,2.97
2018-07-25T18:12:59.391Z,4.00
2018-07-25T18:15:40.727Z,5.80
2018-07-25T18:18:21.605Z,10.10
2018-07-25T18:21:02.535Z,4.30
2018-07-25T18:23:43.295Z,3.73
2018-07-25T18:26:24.463Z,3.73
2018-07-25T18:29:05.279Z,6.57
2018-07-25T18:31:46.648Z,6.40
2018-07-25T18:34:27.400Z,3.50
2018-07-25T18:37:08.431Z,5.10
2018-07-25T18:39:49.518Z,14.97
2018-07-25T18:42:30.911Z,4.83
2018-07-25T18:45:12.423Z,4.20
2018-07-25T18:47:53.746Z,3.17
2018-07-25T18:50:34.615Z,3.53
2018-07-25T18:53:15.193Z,7.93
2018-07-25T18:55:56.179Z,5.10
2018-07-25T18:58:36.786Z,3.90
2018-07-25T19:01:18.334Z,4.17
2018-07-25T19:03:59.067Z,4.00
2018-07-25T19:06:40.239Z,3.23
2018-07-25T19:09:21.215Z,3.73
2018-07-25T19:12:02.220Z,2.60
2018-07-25T19:14:48.507Z,5.43
2018-07-25T19:17:29.589Z,8.20
2018-07-25T19:20:10.493Z,2.90
2018-07-25T19:22:51.674Z,4.37
2018-07-25T19:25:32.447Z,2.70
2018-07-25T19:28:13.293Z,3.17
2018-07-25T19:30:54.497Z,2.83
2018-07-25T19:33:35.397Z,2.50
2018-07-25T19:36:16.264Z,2.50
2018-07-25T19:38:57.440Z,1.87
2018-07-25T19:41:38.999Z,2.70
2018-07-25T19:44:19.674Z,3.57
2018-07-25T19:47:00.925Z,8.73
2018-07-25T19:49:42.560Z,3.70
2018-07-25T19:52:23.323Z,3.67
2018-07-25T19:55:04.739Z,6.90
2018-07-25T19:57:45.566Z,4.57
2018-07-25T20:00:26.250Z,6.10
2018-07-25T20:03:07.108Z,11.80
2018-07-25T20:05:48.104Z,49.47
2018-07-25T20:08:28.982Z,14.50
2018-07-25T20:11:09.914Z,14.53
2018-07-25T20:13:55.760Z,20.33
2018-07-25T20:16:36.570Z,5.60
2018-07-25T20:19:18.053Z,6.70
2018-07-25T20:21:59.221Z,7.53
2018-07-25T20:24:41.097Z,10.53
2018-07-25T20:27:21.884Z,28.10
2018-07-25T20:30:02.973Z,31.93
2018-07-25T20:32:43.811Z,5.33
2018-07-25T20:35:25.118Z,12.70
2018-07-25T20:38:06.322Z,3.40
2018-07-25T20:40:47.214Z,7.50
2018-07-25T20:43:28.152Z,2.80
2018-07-25T20:46:09.135Z,5.13
2018-07-25T20:48:49.691Z,2.77
2018-07-25T20:51:30.945Z,3.43
2018-07-25T20:54:12.314Z,3.80
2018-07-25T20:56:53.244Z,4.53
2018-07-25T20:59:34.179Z,9.23
2018-07-25T21:02:14.904Z,9.90
2018-07-25T21:04:56.023Z,7.03
2018-07-25T21:07:37.246Z,6.57
2018-07-25T21:10:18.234Z,8.20
2018-07-25T21:12:59.488Z,5.03
2018-07-25T21:15:40.140Z,12.57
2018-07-25T21:18:21.315Z,7.90
2018-07-25T21:21:02.100Z,14.03
2018-07-25T21:23:43.099Z,19.40
2018-07-25T21:26:23.985Z,7.27
2018-07-25T21:29:04.735Z,3.43
2018-07-25T21:31:45.835Z,8.00
2018-07-25T21:34:28.294Z,3.50
2018-07-25T21:37:09.173Z,12.93
2018-07-25T21:39:50.105Z,7.33
2018-07-25T21:42:30.668Z,8.33
2018-07-25T21:45:11.922Z,3.70
2018-07-25T21:47:52.759Z,28.03
2018-07-25T21:50:34.595Z,8.83
2018-07-25T21:53:15.698Z,9.80
2018-07-25T21:55:57.173Z,14.27
2018-07-25T21:58:37.982Z,6.97
2018-07-25T22:01:19.216Z,4.83
2018-07-25T22:04:00.753Z,10.87
2018-07-25T22:06:41.682Z,6.57
2018-07-25T22:09:22.726Z,13.20
2018-07-25T22:12:03.882Z,10.40
2018-07-25T22:14:45.452Z,4.40
2018-07-25T22:17:26.428Z,3.57
2018-07-25T22:20:07.589Z,16.80
2018-07-25T22:22:48.955Z,10.50
2018-07-25T22:25:29.849Z,12.10
2018-07-25T22:28:11.208Z,11.53
2018-07-25T22:30:52.458Z,8.73
2018-07-25T22:33:33.373Z,3.80
2018-07-25T22:36:14.403Z,5.97
2018-07-25T22:38:55.398Z,3.90
2018-07-25T22:41:36.378Z,5.30
2018-07-25T22:44:17.607Z,3.87
2018-07-25T22:46:58.982Z,5.33
2018-07-25T22:49:40.213Z,5.37
2018-07-25T22:52:21.207Z,4.70
2018-07-25T22:55:01.943Z,18.87
2018-07-25T22:57:42.698Z,11.00
2018-07-25T23:00:23.593Z,17.73
2018-07-25T23:03:04.441Z,17.63
2018-07-25T23:05:45.293Z,23.37
2018-07-25T23:08:25.898Z,20.67
2018-07-25T23:11:06.697Z,14.57
2018-07-25T23:13:48.433Z,12.80
2018-07-25T23:16:29.433Z,11.20
2018-07-25T23:19:10.069Z,6.60
2018-07-25T23:21:51.186Z,3.93
2018-07-25T23:24:32.181Z,13.93
2018-07-25T23:27:13.429Z,26.97
2018-07-25T23:29:54.584Z,20.43
2018-07-25T23:32:35.768Z,19.13
2018-07-25T23:35:16.869Z,7.90
2018-07-25T23:37:57.948Z,11.40
2018-07-25T23:40:39.130Z,6.87
2018-07-25T23:43:19.892Z,12.10
2018-07-25T23:46:01.251Z,16.00
2018-07-25T23:48:42.156Z,21.73
2018-07-25T23:51:22.888Z,11.70
2018-07-25T23:54:03.922Z,14.63
2018-07-25T23:56:44.902Z,16.20
2018-07-25T23:59:26.082Z,11.03
